Pregled zadnjih 96 podatkov za postajo Žalec Inštitut (2079)

Čas Temperatura tal (10 cm) (°C)  Temperatura (2 m) (°C)  Sončno sevanje (W/m2)  Smer vetra (3 m) (°)  Relativna zračna vlaga (2 m) (%RH)  Padavine (mm)  Omočenost lista (1,5 m) (U)  Hitrost vetra (3 m) (km/h)  Temp. rosišča (2m) (°C)  Temp. mokrega term. (2m) (°C) 
28.10.2021 20:00 6,3 5,1 0 292 100 0 10 1,8 5,1 5,1
28.10.2021 19:30 6,4 6 0 270 97 0 10 1,8 5,5 5,8
28.10.2021 19:00 6,4 7,6 0 173 90 0 10 1,6 6,1 6,8
28.10.2021 18:30 6,5 8,8 0 145 83 0 7 3,1 6,2 7,5
28.10.2021 18:00 6,5 10,5 5 137 75 0 0 5,5 6,3 8,4
28.10.2021 17:30 6,5 11,8 40 106 70 0 0 8 6,6 9,1
28.10.2021 17:00 6,4 12,8 110 115 66 0 0 9,8 6,7 9,6
28.10.2021 16:30 6,4 13,4 183 104 66 0 0 10,8 7,1 10,1
28.10.2021 16:00 6,3 13,7 260 68 66 0 0 12,1 7,4 10,4
28.10.2021 15:30 6,2 13,9 332 95 67 0 0 11,9 7,8 10,6
28.10.2021 15:00 6,1 13,6 398 84 67 0 0 12,9 7,6 10,4
28.10.2021 14:30 6 13 445 129 67 0 0 11,9 7 9,9
28.10.2021 14:00 5,8 12,3 484 143 70 0 0 11,7 7,1 9,6
28.10.2021 13:30 5,6 12 506 76 72 0 0 12,3 7,2 9,5
28.10.2021 13:00 5,4 11,3 517 142 76 0 0 13,1 7,2 9,1
28.10.2021 12:30 5,3 10,1 521 118 80 0 0 13,5 6,8 8,4
28.10.2021 12:00 5,1 8,4 504 59 88 0 0 12 6,5 7,5
28.10.2021 11:30 5 6,9 474 157 100 0 0 8,9 6,9 6,9
28.10.2021 11:00 4,9 5,5 349 153 100 0 1 5,8 5,5 5,5
28.10.2021 10:30 4,8 4,1 279 57 100 0 4 3,5 4,1 4,1
28.10.2021 10:00 4,8 2,9 155 212 100 0 10 2,2 2,9 2,9
28.10.2021 9:30 4,7 2,2 106 311 100 0 10 1,4 2,2 2,2
28.10.2021 9:00 4,7 1,6 60 270 100 0 10 0,5 1,6 1,6
28.10.2021 8:30 4,7 1,6 24 231 100 0 10 0 1,6 1,6
28.10.2021 8:00 4,7 1,4 6 178 100 0 10 0 1,4 1,4
28.10.2021 7:30 4,7 1,3 0 191 100 0 10 0 1,3 1,3
28.10.2021 7:00 4,8 1,2 0 198 100 0 10 0 1,2 1,2
28.10.2021 6:30 4,8 1,2 0 177 100 0 10 0 1,2 1,2
28.10.2021 6:00 4,9 1 0 76 100 0 10 0 1 1
28.10.2021 5:30 4,9 1 0 117 100 0 10 0 0,9 1
28.10.2021 5:00 5 0,7 0 98 100 0 10 0 0,7 0,7
28.10.2021 4:30 5,1 0,6 0 85 100 0 10 0 0,6 0,6
28.10.2021 4:00 5,1 0,7 0 149 100 0 10 0 0,7 0,7
28.10.2021 3:30 5,2 0,9 0 161 100 0 10 0 0,9 0,9
28.10.2021 3:00 5,3 1,1 0 85 100 0 10 0 1 1,1
28.10.2021 2:30 5,4 1,3 0 67 100 0 10 0 1,3 1,3
28.10.2021 2:00 5,5 1,6 0 169 100 0 10 0 1,6 1,6
28.10.2021 1:30 5,6 2 0 61 100 0 10 0 1,9 2
28.10.2021 1:00 5,6 2,1 0 83 100 0 10 0,2 2 2,1
28.10.2021 0:30 5,7 2,6 0 166 100 0 10 0 2,6 2,6
28.10.2021 0:00 5,8 2,9 0 139 100 0 10 1 2,9 2,9
27.10.2021 23:30 5,9 3,3 0 244 100 0 10 2 3,3 3,3
27.10.2021 23:00 6 3,7 0 281 100 0 10 2,7 3,7 3,7
27.10.2021 22:30 6,1 4 0 288 100 0 10 3 3,9 4
27.10.2021 22:00 6,2 4,5 0 308 100 0 10 4,2 4,5 4,5
27.10.2021 21:30 6,3 5 0 282 100 0 10 4,1 5 5
27.10.2021 21:00 6,4 5,3 0 327 100 0 10 4,8 5,2 5,3
27.10.2021 20:30 6,5 6,1 0 289 100 0 10 5,3 6,1 6,1
27.10.2021 20:00 6,6 6,5 0 242 99 0 10 5,8 6,5 6,5
27.10.2021 19:30 6,7 7,1 0 260 98 0 10 7,3 6,7 6,9
27.10.2021 19:00 6,8 8 0 167 94 0 10 6,1 7,1 7,6
27.10.2021 18:30 6,8 9,6 0 194 86 0 10 10,4 7,3 8,4
27.10.2021 18:00 6,8 11,7 6 240 75 0 0 12,6 7,5 9,5
27.10.2021 17:30 6,8 14 53 171 65 0 0 16,2 7,5 10,5
27.10.2021 17:00 6,8 14,8 124 129 61 0 0 17,9 7,3 10,8
27.10.2021 16:30 6,7 15,3 196 129 59 0 0 19,4 7,4 11
27.10.2021 16:00 6,6 15,8 277 108 58 0 0 20 7,5 11,3
27.10.2021 15:30 6,5 15,8 346 218 58 0 0 22,9 7,7 11,4
27.10.2021 15:00 6,3 15,4 407 231 59 0 0 23 7,3 11,1
27.10.2021 14:30 6,2 14,6 456 113 62 0 0 20 7,4 10,8
27.10.2021 14:00 6 14,1 491 113 64 0 0 20 7,4 10,5
27.10.2021 13:30 5,9 13,9 517 164 64 0 0 21,1 7,1 10,3
27.10.2021 13:00 5,7 13,7 529 156 62 0 0 23 6,7 10,1
27.10.2021 12:30 5,5 13,2 528 153 64 0 0 27,4 6,5 9,7
27.10.2021 12:00 5,4 11,8 511 304 67 0 0 27,5 6 8,9
27.10.2021 11:30 5,3 10,8 480 252 72 0 0 25,2 5,9 8,3
27.10.2021 11:00 5,1 9,4 438 275 78 0 1 23 5,9 7,7
27.10.2021 10:30 5,1 8 383 264 83 0 10 20,6 5,4 6,7
27.10.2021 10:00 5,1 6,6 316 298 88 0 10 18,4 4,7 5,7
27.10.2021 9:30 5,1 4,7 242 271 93 0 10 13,9 3,8 4,3
27.10.2021 9:00 5,1 3,5 161 314 97 0 10 10,3 3,1 3,3
27.10.2021 8:30 5,1 1,9 76 197 100 0 10 3,8 1,9 1,9
27.10.2021 8:00 5,2 1,9 9 250 100 0 10 5,1 1,8 1,9
27.10.2021 7:30 5,3 1,3 0 313 100 0 10 3,1 1,3 1,3
27.10.2021 7:00 5,3 2,3 0 263 100 0 10 5,2 2,3 2,3
27.10.2021 6:30 5,4 1,9 0 326 100 0 10 5,2 1,9 1,9
27.10.2021 6:00 5,5 1,8 0 334 100 0 10 5,7 1,8 1,8
27.10.2021 5:30 5,6 1,7 0 311 100 0 10 3,7 1,7 1,7
27.10.2021 5:00 5,7 2,1 0 278 100 0 10 5,6 2,1 2,1
27.10.2021 4:30 5,7 2,3 0 256 100 0 10 5,7 2,3 2,3
27.10.2021 4:00 5,7 2,7 0 294 100 0 10 5,9 2,7 2,7
27.10.2021 3:30 5,8 3,2 0 250 99 0 10 7,1 3 3,1
27.10.2021 3:00 5,9 3,3 0 311 99 0 10 7,5 3,1 3,2
27.10.2021 2:30 5,9 3,7 0 316 98 0 10 7,9 3,5 3,6
27.10.2021 2:00 6 4,2 0 292 97 0 10 8,8 3,8 4
27.10.2021 1:30 6 4,3 0 313 99 0 10 8,7 4,1 4,2
27.10.2021 1:00 6 4,3 0 281 99 0 10 9,1 4,1 4,2
27.10.2021 0:30 6,1 4,9 0 311 98 0 10 10,4 4,6 4,8
27.10.2021 0:00 6,1 5,4 0 308 98 0 10 10,9 5,1 5,3
26.10.2021 23:30 6,1 6 0 298 97 0 10 10,9 5,5 5,8
26.10.2021 23:00 6,1 6,4 0 305 97 0 10 11,1 6 6,2
26.10.2021 22:30 6,2 6 0 285 100 0 10 10,8 6 6
26.10.2021 22:00 6,2 5,9 0 260 99 0 10 11,1 5,8 5,8
26.10.2021 21:30 6,2 6,4 0 280 98 0 10 12,2 6,1 6,2
26.10.2021 21:00 6,2 6,4 0 284 98 0 10 12,2 6,2 6,3
26.10.2021 20:30 6,3 6,5 0 262 97 0 10 12,3 6,1 6,3